Pays
Station

 

Conditions  météo  pour  Rijeka/Omisalj  -  Croatie    Croatie

  
12 °C
    
 
 

METAR pour Rijeka/Omisalj :

LDRI 212300Z VRB06KT 9999 FEW040 12/02 Q1022

 

Voici le bulletin pour Rijeka/Omisalj - Croatie.
 
Le bulletin a été fait il y a 28 minutes, à 23:00 UTC .
Le vent soufflait à la vitesse de 3.1 mètres par seconde de direction variable.
 
La température était de 12 °C, avec un point de rosée à 2 °C.
La pression atmosphérique était de 1022 hPa.
L'humidité relative était de 50.3%.
 
Il y avait 1 à 2/8ème de nébulosité à une hauteur de 1219 mètres.
 
La visibilité globale était de supérieure à 10 kilomètres.
 

 
 
 

Pays :   A   B   C   D   E   F   G   H   I   J   K   L   M   N   O   P   Q   R   S   T   U   V   W   Y   Z

 

Partenaires :  Info Météo avec Met'info
Météo Marine avec MeteoMarine.net
Infos Site  |  Infos Légales  |  Crédits  |  Confidentialité
Contactez-nous  |  Ajouter aux favoris
© 2013-2018 METAR - Tous droits réservés